CYEG/YEG METAR and TAF weather

Enter ICAO airport designator
Station Type Date Time Source
CYEG METAR 2021/05/14 06:00 UTC NOAA

CYEG 140600Z VRB02KT 20SM FEW100 FEW260 07/03 A3009 RMK AC1CI1 CI TR SLP203


Station Type Date Time Source
CYEG Decoded METAR 2021/05/14 06:00 UTC NOAA

Edmonton International, Alta., Canada (CYEG) 53-18N 113-35W 723M
May 14, 2021 - 02:00 AM EDT / 2021.05.14 0600 UTC
Wind: Variable at 2 MPH (2 KT):0
Visibility: 20 mile(s):0
Sky conditions: mostly clear
Temperature: 44 F (7 C)
Dew Point: 37 F (3 C)
Relative Humidity: 75%
Pressure (altimeter): 30.09 in. Hg (1018 hPa)
ob: CYEG 140600Z VRB02KT 20SM FEW100 FEW260 07/03 A3009 RMK AC1CI1 CI TR SLP203
cycle: 6

Station Type Date Time Source
CYEG TAF 2021/05/14 06:42 UTC NOAA

TAF TAF CYEG 140539Z 1406/1506 VRB03KT P6SM FEW120 SCT260 PROB30 1409/1414 1SM BR
FM141700 12005KT P6SM SCT060
FM141900 15005KT P6SM SCT080
TEMPO 1421/1501 P6SM -SHRA VCTS BKN080CB
RMK NXT FCST BY 140900Z

Example: see airport list